createdAt,value
2017-11-05T00:02:00.662Z,35.00
2017-11-05T00:04:27.931Z,34.20
2017-11-05T00:06:55.202Z,34.20
2017-11-05T00:09:22.498Z,37.60
2017-11-05T00:11:49.809Z,38.60
2017-11-05T00:14:17.081Z,38.13
2017-11-05T00:16:44.355Z,35.17
2017-11-05T00:19:11.668Z,38.30
2017-11-05T00:21:38.943Z,33.23
2017-11-05T00:24:06.214Z,35.60
2017-11-05T00:26:33.525Z,37.13
2017-11-05T00:29:00.795Z,39.37
2017-11-05T00:31:28.108Z,42.53
2017-11-05T00:33:55.389Z,37.63
2017-11-05T00:36:22.660Z,36.70
2017-11-05T00:38:49.964Z,35.47
2017-11-05T00:41:17.228Z,35.17
2017-11-05T00:43:44.539Z,37.57
2017-11-05T00:46:11.815Z,38.40
2017-11-05T00:48:39.087Z,37.07
2017-11-05T00:51:06.392Z,35.87
2017-11-05T00:53:33.659Z,36.13
2017-11-05T00:56:00.959Z,35.40
2017-11-05T00:58:28.227Z,34.67
2017-11-05T01:00:55.531Z,33.50
2017-11-05T01:03:22.814Z,35.53
2017-11-05T01:05:50.114Z,33.57
2017-11-05T01:08:17.384Z,34.57
2017-11-05T01:10:44.685Z,32.37
2017-11-05T01:13:11.957Z,32.93
2017-11-05T01:15:39.260Z,30.40
2017-11-05T01:18:06.555Z,31.20
2017-11-05T01:20:33.858Z,33.23
2017-11-05T01:23:01.151Z,33.63
2017-11-05T01:25:28.475Z,31.30
2017-11-05T01:27:55.784Z,28.70
2017-11-05T01:30:23.060Z,32.60
2017-11-05T01:32:50.331Z,33.27
2017-11-05T01:35:17.640Z,33.93
2017-11-05T01:37:44.950Z,34.40
2017-11-05T01:40:12.216Z,32.13
2017-11-05T01:42:39.490Z,32.93
2017-11-05T01:45:06.782Z,33.63
2017-11-05T01:47:34.127Z,36.90
2017-11-05T01:50:01.402Z,36.80
2017-11-05T01:52:28.673Z,36.87
2017-11-05T01:54:55.971Z,37.47
2017-11-05T01:57:23.242Z,40.50
2017-11-05T01:59:50.526Z,37.30
2017-11-05T02:02:17.819Z,35.07
2017-11-05T02:04:45.127Z,31.47
2017-11-05T02:07:12.419Z,35.80
2017-11-05T02:09:39.733Z,34.07
2017-11-05T02:12:07.012Z,33.30
2017-11-05T02:14:34.311Z,37.60
2017-11-05T02:17:01.586Z,37.83
2017-11-05T02:19:28.883Z,46.07
2017-11-05T02:21:56.193Z,41.83
2017-11-05T02:24:23.468Z,32.50
2017-11-05T02:26:50.766Z,37.70
2017-11-05T02:29:18.095Z,33.67
2017-11-05T02:31:45.376Z,36.73
2017-11-05T02:34:12.643Z,31.80
2017-11-05T02:36:39.958Z,38.00
2017-11-05T02:39:07.227Z,33.43
2017-11-05T02:41:34.527Z,37.27
2017-11-05T02:44:01.851Z,32.70
2017-11-05T02:46:29.137Z,32.97
2017-11-05T02:48:56.409Z,32.13
2017-11-05T02:51:23.721Z,33.77
2017-11-05T02:53:51.002Z,33.30
2017-11-05T02:56:18.450Z,34.90
2017-11-05T02:58:45.836Z,35.70
2017-11-05T03:01:13.106Z,32.93
2017-11-05T03:03:40.400Z,33.77
2017-11-05T03:06:07.675Z,31.33
2017-11-05T03:08:34.967Z,32.67
2017-11-05T03:11:02.351Z,28.10
2017-11-05T03:13:29.659Z,30.30
2017-11-05T03:15:56.937Z,29.97
2017-11-05T03:18:24.237Z,27.90
2017-11-05T03:20:51.522Z,25.93
2017-11-05T03:23:18.811Z,25.00
2017-11-05T03:25:46.090Z,19.47
2017-11-05T03:28:13.387Z,21.80
2017-11-05T03:30:40.660Z,19.70
2017-11-05T03:33:07.951Z,19.93
2017-11-05T03:35:35.237Z,20.03
2017-11-05T03:38:02.530Z,18.37
2017-11-05T03:40:29.812Z,17.50
2017-11-05T03:42:57.109Z,18.03
2017-11-05T03:45:24.375Z,14.60
2017-11-05T03:47:51.674Z,16.30
2017-11-05T03:50:18.952Z,13.67
2017-11-05T03:52:46.264Z,14.10
2017-11-05T03:55:13.560Z,13.73
2017-11-05T03:57:40.852Z,13.37
2017-11-05T04:00:08.130Z,15.53
2017-11-05T04:02:35.427Z,16.27
2017-11-05T04:05:02.698Z,15.97
2017-11-05T04:07:30.000Z,12.57
2017-11-05T04:09:57.277Z,13.40
2017-11-05T04:12:24.571Z,16.87
2017-11-05T04:14:51.855Z,13.80
2017-11-05T04:17:19.147Z,17.70
2017-11-05T04:19:46.419Z,16.10
2017-11-05T04:22:13.728Z,16.93
2017-11-05T04:24:40.986Z,20.67
2017-11-05T04:27:08.292Z,14.67
2017-11-05T04:29:35.568Z,13.90
2017-11-05T04:32:02.879Z,14.50
2017-11-05T04:34:30.148Z,12.40
2017-11-05T04:36:57.431Z,13.63
2017-11-05T04:39:24.710Z,12.60
2017-11-05T04:41:52.000Z,12.90
2017-11-05T04:44:19.295Z,13.80
2017-11-05T04:46:46.600Z,12.33
2017-11-05T04:49:13.889Z,12.80
2017-11-05T04:51:41.151Z,15.70
2017-11-05T04:54:08.451Z,12.53
2017-11-05T04:56:35.724Z,10.33
2017-11-05T04:59:03.039Z,11.13
2017-11-05T05:01:30.319Z,10.50
2017-11-05T05:03:57.620Z,10.10
2017-11-05T05:06:24.913Z,11.37
2017-11-05T05:08:52.217Z,10.87
2017-11-05T05:11:19.507Z,11.80
2017-11-05T05:13:47.683Z,10.00
2017-11-05T05:16:14.959Z,11.87
2017-11-05T05:18:42.255Z,10.70
2017-11-05T05:21:09.536Z,9.80
2017-11-05T05:23:36.824Z,9.67
2017-11-05T05:26:04.091Z,9.47
2017-11-05T05:28:31.383Z,7.03
2017-11-05T05:30:58.650Z,5.10
2017-11-05T05:33:25.940Z,3.40
2017-11-05T05:35:53.203Z,4.63
2017-11-05T05:38:20.496Z,3.67
2017-11-05T05:40:47.760Z,4.47
2017-11-05T05:43:15.036Z,3.20
2017-11-05T05:45:42.294Z,3.30
2017-11-05T05:48:09.682Z,4.60
2017-11-05T05:50:36.942Z,4.40
2017-11-05T05:53:04.236Z,2.90
2017-11-05T05:55:31.495Z,3.27
2017-11-05T05:57:58.834Z,3.03
2017-11-05T06:00:26.111Z,2.80
2017-11-05T06:02:53.410Z,3.70
2017-11-05T06:05:20.672Z,4.50
2017-11-05T06:07:47.956Z,3.37
2017-11-05T06:10:15.242Z,3.40
2017-11-05T06:12:42.516Z,3.70
2017-11-05T06:15:09.790Z,3.30
2017-11-05T06:17:37.076Z,3.03
2017-11-05T06:20:04.349Z,3.90
2017-11-05T06:22:31.631Z,2.87
2017-11-05T06:24:58.883Z,3.23
2017-11-05T06:27:26.174Z,2.90
2017-11-05T06:29:53.435Z,3.73
2017-11-05T06:32:20.732Z,3.50
2017-11-05T06:34:48.006Z,5.20
2017-11-05T06:37:15.280Z,3.60
2017-11-05T06:39:42.572Z,3.60
2017-11-05T06:42:09.826Z,3.77
2017-11-05T06:44:37.457Z,4.23
2017-11-05T06:47:04.730Z,4.00
2017-11-05T06:49:32.007Z,4.20
2017-11-05T06:51:59.284Z,3.50
2017-11-05T06:54:26.648Z,5.30
2017-11-05T06:56:53.910Z,3.87
2017-11-05T06:59:21.212Z,5.07
2017-11-05T07:01:48.515Z,5.57
2017-11-05T07:04:15.764Z,4.80
2017-11-05T07:06:43.068Z,5.10
2017-11-05T07:09:10.336Z,5.33
2017-11-05T07:11:37.603Z,4.60
2017-11-05T07:14:04.908Z,5.83
2017-11-05T07:16:32.175Z,4.37
2017-11-05T07:18:59.427Z,4.60
2017-11-05T07:21:26.728Z,4.60
2017-11-05T07:23:54.079Z,5.53
2017-11-05T07:26:21.352Z,5.20
2017-11-05T07:28:48.636Z,5.03
2017-11-05T07:31:15.931Z,4.37
2017-11-05T07:33:43.199Z,5.20
2017-11-05T07:36:10.464Z,4.30
2017-11-05T07:38:37.749Z,5.33
2017-11-05T07:41:05.024Z,4.80
2017-11-05T07:43:32.312Z,5.20
2017-11-05T07:45:59.586Z,6.00
2017-11-05T07:48:26.922Z,7.30
2017-11-05T07:50:54.180Z,6.50
2017-11-05T07:53:21.499Z,8.40
2017-11-05T07:55:48.749Z,6.20
2017-11-05T07:58:16.007Z,2.80
2017-11-05T08:00:43.310Z,3.67
2017-11-05T08:03:10.561Z,3.27
2017-11-05T08:05:37.838Z,2.77
2017-11-05T08:08:05.111Z,1.73
2017-11-05T08:10:32.406Z,1.90
2017-11-05T08:12:59.674Z,2.03
2017-11-05T08:15:27.027Z,1.77
2017-11-05T08:17:54.318Z,1.87
2017-11-05T08:20:21.583Z,2.20
2017-11-05T08:22:48.862Z,2.30
2017-11-05T08:25:16.196Z,2.13
2017-11-05T08:27:43.480Z,2.03
2017-11-05T08:30:11.065Z,2.20
2017-11-05T08:32:38.371Z,1.83
2017-11-05T08:35:05.652Z,1.77
2017-11-05T08:37:32.921Z,2.20
2017-11-05T08:40:00.203Z,1.60
2017-11-05T08:42:27.463Z,1.70
2017-11-05T08:44:54.756Z,1.50
2017-11-05T08:47:22.028Z,1.70
2017-11-05T08:49:49.289Z,2.30
2017-11-05T08:52:16.575Z,2.10
2017-11-05T08:54:43.843Z,2.00
2017-11-05T08:57:11.127Z,2.07
2017-11-05T08:59:38.391Z,2.00
2017-11-05T09:02:05.680Z,2.73
2017-11-05T09:04:32.940Z,2.33
2017-11-05T09:07:00.241Z,2.10
2017-11-05T09:09:27.500Z,2.20
2017-11-05T09:11:54.754Z,2.07
2017-11-05T09:14:22.040Z,2.10
2017-11-05T09:16:49.325Z,2.50
2017-11-05T09:19:16.583Z,2.17
2017-11-05T09:21:43.871Z,1.80
2017-11-05T09:24:11.131Z,2.07
2017-11-05T09:26:38.416Z,2.30
2017-11-05T09:29:05.695Z,2.27
2017-11-05T09:31:33.006Z,2.20
2017-11-05T09:34:00.263Z,2.40
2017-11-05T09:36:27.534Z,2.43
2017-11-05T09:38:54.832Z,2.03
2017-11-05T09:41:22.104Z,2.50
2017-11-05T09:43:49.392Z,2.40
2017-11-05T09:46:16.650Z,2.10
2017-11-05T09:48:43.948Z,2.60
2017-11-05T09:51:11.207Z,2.10
2017-11-05T09:53:38.497Z,2.50
2017-11-05T09:56:05.782Z,2.43
2017-11-05T09:58:33.052Z,2.60
2017-11-05T10:01:00.363Z,3.60
2017-11-05T10:03:27.639Z,2.60
2017-11-05T10:05:54.901Z,3.20
2017-11-05T10:08:22.191Z,2.90
2017-11-05T10:10:49.455Z,2.80
2017-11-05T10:13:16.738Z,3.10
2017-11-05T10:15:44.024Z,3.07
2017-11-05T10:18:11.318Z,3.50
2017-11-05T10:20:38.607Z,2.77
2017-11-05T10:23:05.863Z,3.30
2017-11-05T10:25:33.152Z,3.50
2017-11-05T10:28:00.452Z,2.90
2017-11-05T10:30:27.807Z,2.67
2017-11-05T10:32:55.103Z,2.93
2017-11-05T10:35:22.370Z,2.63
2017-11-05T10:37:49.663Z,3.90
2017-11-05T10:40:16.929Z,3.20
2017-11-05T10:42:44.210Z,3.30
2017-11-05T10:45:11.466Z,3.43
2017-11-05T10:47:38.777Z,2.73
2017-11-05T10:50:06.130Z,2.83
2017-11-05T10:52:33.415Z,3.20
2017-11-05T10:55:00.700Z,3.03
2017-11-05T10:57:27.991Z,3.17
2017-11-05T10:59:55.360Z,2.93
2017-11-05T11:02:22.703Z,3.60
2017-11-05T11:04:49.966Z,3.07
2017-11-05T11:07:17.291Z,2.77
2017-11-05T11:09:44.549Z,2.77
2017-11-05T11:12:11.799Z,3.33
2017-11-05T11:14:39.092Z,3.03
2017-11-05T11:17:06.351Z,3.70
2017-11-05T11:19:33.648Z,3.40
2017-11-05T11:22:00.911Z,3.00
2017-11-05T11:24:28.171Z,3.70
2017-11-05T11:26:55.470Z,3.03
2017-11-05T11:29:22.735Z,3.37
2017-11-05T11:31:50.028Z,4.03
2017-11-05T11:34:17.307Z,3.57
2017-11-05T11:36:44.598Z,2.87
2017-11-05T11:39:11.863Z,3.13
2017-11-05T11:41:39.159Z,3.10
2017-11-05T11:44:06.425Z,2.73
2017-11-05T11:46:33.686Z,2.23
2017-11-05T11:49:00.979Z,2.83
2017-11-05T11:51:28.240Z,2.10
2017-11-05T11:53:55.529Z,1.93
2017-11-05T11:56:22.783Z,2.10
2017-11-05T11:58:50.071Z,2.57
2017-11-05T12:01:17.328Z,2.40
2017-11-05T12:03:44.615Z,1.97
2017-11-05T12:06:11.904Z,2.13
2017-11-05T12:08:39.169Z,2.20
2017-11-05T12:11:06.468Z,2.03
2017-11-05T12:13:33.728Z,1.87
2017-11-05T12:16:00.984Z,2.53
2017-11-05T12:18:28.279Z,2.50
2017-11-05T12:20:55.540Z,2.40
2017-11-05T12:23:22.824Z,2.83
2017-11-05T12:25:50.083Z,2.33
2017-11-05T12:28:17.383Z,2.47
2017-11-05T12:30:44.651Z,3.00
2017-11-05T12:33:11.911Z,2.70
2017-11-05T12:35:39.199Z,2.80
2017-11-05T12:38:06.455Z,2.10
2017-11-05T12:40:33.744Z,2.50
2017-11-05T12:43:01.030Z,2.80
2017-11-05T12:45:28.322Z,3.27
2017-11-05T12:47:55.583Z,2.47
2017-11-05T12:50:22.871Z,3.30
2017-11-05T12:52:50.192Z,3.67
2017-11-05T12:55:17.435Z,3.20
2017-11-05T12:57:44.696Z,3.13
2017-11-05T13:00:11.983Z,3.13
2017-11-05T13:02:39.263Z,3.90
2017-11-05T13:05:06.530Z,3.47
2017-11-05T13:07:33.835Z,4.87
2017-11-05T13:10:01.091Z,5.90
2017-11-05T13:12:28.363Z,7.00
2017-11-05T13:14:55.650Z,5.60
2017-11-05T13:17:22.935Z,7.43
2017-11-05T13:19:50.199Z,8.23
2017-11-05T13:22:17.579Z,7.40
2017-11-05T13:24:44.870Z,6.80
2017-11-05T13:27:12.172Z,7.00
2017-11-05T13:29:39.534Z,7.80
2017-11-05T13:32:06.803Z,7.53
2017-11-05T13:34:34.112Z,7.50
2017-11-05T13:37:01.376Z,7.30
2017-11-05T13:39:28.650Z,5.63
2017-11-05T13:41:55.947Z,6.50
2017-11-05T13:44:23.216Z,6.50
2017-11-05T13:46:50.483Z,7.40
2017-11-05T13:49:17.787Z,6.00
2017-11-05T13:51:45.056Z,6.57
2017-11-05T13:54:12.350Z,7.03
2017-11-05T13:56:39.618Z,5.87
2017-11-05T13:59:06.918Z,5.93
2017-11-05T14:01:34.211Z,5.57
2017-11-05T14:04:01.519Z,6.50
2017-11-05T14:06:28.822Z,5.53
2017-11-05T14:08:56.091Z,5.10
2017-11-05T14:11:23.401Z,5.87
2017-11-05T14:13:50.698Z,5.60
2017-11-05T14:16:17.965Z,5.23
2017-11-05T14:18:45.270Z,5.00
2017-11-05T14:21:12.532Z,6.07
2017-11-05T14:23:39.795Z,6.50
2017-11-05T14:26:07.303Z,6.37
2017-11-05T14:28:35.665Z,5.60
2017-11-05T14:31:03.297Z,4.70
2017-11-05T14:33:30.583Z,5.30
2017-11-05T14:35:57.858Z,6.07
2017-11-05T14:38:25.148Z,6.23
2017-11-05T14:40:52.417Z,6.13
2017-11-05T14:43:19.716Z,5.20
2017-11-05T14:45:47.029Z,4.97
2017-11-05T14:48:14.290Z,5.07
2017-11-05T14:50:41.568Z,5.30
2017-11-05T14:53:08.851Z,4.50
2017-11-05T14:55:36.122Z,4.77
2017-11-05T14:58:03.411Z,4.87
2017-11-05T15:00:30.703Z,5.07
2017-11-05T15:02:57.996Z,4.97
2017-11-05T15:05:25.260Z,4.60
2017-11-05T15:07:52.559Z,4.80
2017-11-05T15:10:19.855Z,5.17
2017-11-05T15:12:47.142Z,4.67
2017-11-05T15:15:14.412Z,5.50
2017-11-05T15:17:41.699Z,4.80
2017-11-05T15:20:08.987Z,4.67
2017-11-05T15:22:36.280Z,4.90
2017-11-05T15:25:03.569Z,4.30
2017-11-05T15:27:30.831Z,5.00
2017-11-05T15:29:58.126Z,4.40
2017-11-05T15:32:25.394Z,4.73
2017-11-05T15:34:52.685Z,4.70
2017-11-05T15:37:20.001Z,4.80
2017-11-05T15:39:47.256Z,4.47
2017-11-05T15:42:14.512Z,4.03
2017-11-05T15:44:41.808Z,5.07
2017-11-05T15:47:09.074Z,4.93
2017-11-05T15:49:36.370Z,4.20
2017-11-05T15:52:03.671Z,5.10
2017-11-05T15:54:30.972Z,4.40
2017-11-05T15:56:58.237Z,5.77
2017-11-05T15:59:25.530Z,5.43
2017-11-05T16:01:52.817Z,4.50
2017-11-05T16:04:20.071Z,5.70
2017-11-05T16:06:47.372Z,4.93
2017-11-05T16:09:14.663Z,7.43
2017-11-05T16:11:41.927Z,4.93
2017-11-05T16:14:09.220Z,4.97
2017-11-05T16:16:36.488Z,5.87
2017-11-05T16:19:03.871Z,8.60
2017-11-05T16:21:31.163Z,7.73
2017-11-05T16:23:58.459Z,6.20
2017-11-05T16:26:25.748Z,5.07
2017-11-05T16:28:53.010Z,4.87
2017-11-05T16:31:20.308Z,5.53
2017-11-05T16:33:47.600Z,6.50
2017-11-05T16:36:14.904Z,5.30
2017-11-05T16:38:42.835Z,5.33
2017-11-05T16:41:10.223Z,5.30
2017-11-05T16:43:39.562Z,5.30
2017-11-05T16:46:08.065Z,4.50
2017-11-05T16:48:36.944Z,5.10
2017-11-05T16:51:04.242Z,7.57
2017-11-05T16:53:31.515Z,5.17
2017-11-05T16:55:58.758Z,5.50
2017-11-05T16:58:26.054Z,5.27
2017-11-05T17:00:53.320Z,4.90
2017-11-05T17:03:20.615Z,6.00
2017-11-05T17:05:47.881Z,6.57
2017-11-05T17:08:15.170Z,5.80
2017-11-05T17:10:42.647Z,6.13
2017-11-05T17:13:10.242Z,5.60
2017-11-05T17:15:38.229Z,5.80
2017-11-05T17:18:05.786Z,5.27
2017-11-05T17:20:33.055Z,4.70
2017-11-05T17:23:00.346Z,4.27
2017-11-05T17:25:28.645Z,4.00
2017-11-05T17:27:56.580Z,4.03
2017-11-05T17:30:23.879Z,3.90
2017-11-05T17:32:51.186Z,4.50
2017-11-05T17:35:18.437Z,3.97
2017-11-05T17:37:46.594Z,3.73
2017-11-05T17:40:14.119Z,3.87
2017-11-05T17:42:41.405Z,4.50
2017-11-05T17:45:08.679Z,4.47
2017-11-05T17:47:35.968Z,4.73
2017-11-05T17:50:03.257Z,3.47
2017-11-05T17:52:30.511Z,4.77
2017-11-05T17:54:57.955Z,4.70
2017-11-05T17:57:25.223Z,3.70
2017-11-05T17:59:52.557Z,3.40
2017-11-05T18:02:19.820Z,3.40
2017-11-05T18:04:47.284Z,4.00
2017-11-05T18:07:15.167Z,3.77
2017-11-05T18:09:42.466Z,3.30
2017-11-05T18:12:09.752Z,4.30
2017-11-05T18:14:37.398Z,3.50
2017-11-05T18:17:04.685Z,4.13
2017-11-05T18:19:32.468Z,4.37
2017-11-05T18:21:59.819Z,4.40
2017-11-05T18:24:27.099Z,4.67
2017-11-05T18:26:54.447Z,3.70
2017-11-05T18:29:21.823Z,3.87
2017-11-05T18:31:49.108Z,4.70
2017-11-05T18:34:16.358Z,4.30
2017-11-05T18:36:43.646Z,4.80
2017-11-05T18:39:10.902Z,4.80
2017-11-05T18:41:38.184Z,4.37
2017-11-05T18:44:05.443Z,4.37
2017-11-05T18:46:32.714Z,4.00
2017-11-05T18:48:59.980Z,4.33
2017-11-05T18:51:27.594Z,4.63
2017-11-05T18:53:56.987Z,4.20
2017-11-05T18:56:25.086Z,4.00
2017-11-05T18:58:52.357Z,4.50
2017-11-05T19:01:19.677Z,4.57
2017-11-05T19:03:46.915Z,5.60
2017-11-05T19:06:14.205Z,4.90
2017-11-05T19:08:41.464Z,4.17
2017-11-05T19:11:08.743Z,6.70
2017-11-05T19:13:36.019Z,4.13
2017-11-05T19:16:06.842Z,5.70
2017-11-05T19:18:34.130Z,5.53
2017-11-05T19:21:01.535Z,4.97
2017-11-05T19:23:28.803Z,5.23
2017-11-05T19:25:56.078Z,5.57
2017-11-05T19:28:23.356Z,4.90
2017-11-05T19:30:50.771Z,4.83
2017-11-05T19:33:18.057Z,4.77
2017-11-05T19:35:45.467Z,5.93
2017-11-05T19:38:12.748Z,6.00
2017-11-05T19:40:40.018Z,6.23
2017-11-05T19:43:07.305Z,5.93
2017-11-05T19:45:34.576Z,7.67
2017-11-05T19:48:01.860Z,6.70
2017-11-05T19:50:29.125Z,6.50
2017-11-05T19:52:56.409Z,6.93
2017-11-05T19:55:23.800Z,6.30
2017-11-05T19:57:52.654Z,7.10
2017-11-05T20:00:19.935Z,6.60
2017-11-05T20:02:47.208Z,7.27
2017-11-05T20:05:14.509Z,6.47
2017-11-05T20:07:42.009Z,7.23
2017-11-05T20:10:10.734Z,7.37
2017-11-05T20:12:38.931Z,7.00
2017-11-05T20:15:06.219Z,6.77
2017-11-05T20:17:33.499Z,6.75
2017-11-05T20:20:00.780Z,7.77
2017-11-05T20:22:28.051Z,6.67
2017-11-05T20:24:55.342Z,7.37
2017-11-05T20:27:22.605Z,6.73
2017-11-05T20:29:49.884Z,6.83
2017-11-05T20:32:17.308Z,7.90
2017-11-05T20:34:46.069Z,8.70
2017-11-05T20:37:13.330Z,7.10
2017-11-05T20:39:40.695Z,7.47
2017-11-05T20:42:11.455Z,9.00
2017-11-05T20:44:38.931Z,7.07
2017-11-05T20:47:06.223Z,9.17
2017-11-05T20:49:33.490Z,8.33
2017-11-05T20:52:00.946Z,7.87
2017-11-05T20:54:28.211Z,8.40
2017-11-05T20:56:55.500Z,7.50
2017-11-05T20:59:22.810Z,7.33
2017-11-05T21:01:50.105Z,7.77
2017-11-05T21:04:17.352Z,8.73
2017-11-05T21:06:44.640Z,8.33
2017-11-05T21:09:11.910Z,7.67
2017-11-05T21:11:39.188Z,9.97
2017-11-05T21:14:07.297Z,7.40
2017-11-05T21:16:34.565Z,8.40
2017-11-05T21:19:02.179Z,9.77
2017-11-05T21:21:29.480Z,9.63
2017-11-05T21:23:56.756Z,8.00
2017-11-05T21:26:24.167Z,10.87
2017-11-05T21:28:51.842Z,9.30
2017-11-05T21:31:19.082Z,9.60
2017-11-05T21:33:46.372Z,8.67
2017-11-05T21:36:13.647Z,10.47
2017-11-05T21:38:41.011Z,9.70
2017-11-05T21:41:08.279Z,9.23
2017-11-05T21:43:35.567Z,9.10
2017-11-05T21:46:02.839Z,10.53
2017-11-05T21:48:30.127Z,8.70
2017-11-05T21:50:57.733Z,8.60
2017-11-05T21:53:25.060Z,10.47
2017-11-05T21:55:52.328Z,9.50
2017-11-05T21:58:19.594Z,9.60
2017-11-05T22:00:46.884Z,9.90
2017-11-05T22:03:14.146Z,9.60
2017-11-05T22:05:41.440Z,11.63
2017-11-05T22:08:08.715Z,12.30
2017-11-05T22:10:36.005Z,9.53
2017-11-05T22:13:03.275Z,10.23
2017-11-05T22:15:30.574Z,10.77
2017-11-05T22:17:58.403Z,9.93
2017-11-05T22:20:26.489Z,10.90
2017-11-05T22:22:53.885Z,11.30
2017-11-05T22:25:21.163Z,11.20
2017-11-05T22:27:48.451Z,11.97
2017-11-05T22:30:15.719Z,9.50
2017-11-05T22:32:43.007Z,10.93
2017-11-05T22:35:10.286Z,10.10
2017-11-05T22:37:37.579Z,13.17
2017-11-05T22:40:04.852Z,10.13
2017-11-05T22:42:32.147Z,10.77
2017-11-05T22:44:59.414Z,11.73
2017-11-05T22:47:26.710Z,10.27
2017-11-05T22:49:53.990Z,10.60
2017-11-05T22:52:21.278Z,10.37
2017-11-05T22:54:48.867Z,9.70
2017-11-05T22:57:16.270Z,10.93
2017-11-05T22:59:43.541Z,16.23
2017-11-05T23:02:10.903Z,10.13
2017-11-05T23:04:38.191Z,14.67
2017-11-05T23:07:05.470Z,12.10
2017-11-05T23:09:32.872Z,11.63
2017-11-05T23:12:00.254Z,10.53
2017-11-05T23:14:27.544Z,12.40
2017-11-05T23:16:55.102Z,11.83
2017-11-05T23:19:22.392Z,9.87
2017-11-05T23:21:49.659Z,9.60
2017-11-05T23:24:16.978Z,10.50
2017-11-05T23:26:44.240Z,9.97
2017-11-05T23:29:11.533Z,11.10
2017-11-05T23:31:38.799Z,10.97
2017-11-05T23:34:06.076Z,10.30
2017-11-05T23:36:33.367Z,10.73
2017-11-05T23:39:00.652Z,9.70
2017-11-05T23:41:27.931Z,10.50
2017-11-05T23:43:55.209Z,10.80
2017-11-05T23:46:22.503Z,10.83
2017-11-05T23:48:49.773Z,9.07
2017-11-05T23:51:17.067Z,10.10
2017-11-05T23:53:44.335Z,9.90
2017-11-05T23:56:11.623Z,9.87
2017-11-05T23:58:38.887Z,8.93
